Terminal Aerodrome Forecast
Issued by NWS

Home | Current Version | Previous Version | Text Only | Print | Product List | Glossary On
Versions: 1 2 3 4 5 6 7 8 9 10 11 12 13
000
FTUS45 KTFX 022100 AAA
TAFCTB
TAF AMD
KCTB 022150Z 0222/0318 36025G35KT 6SM -SN BLSN SCT020 OVC045
      TEMPO 0222/0302 3SM -SN BLSN BKN015
     FM030400 36012KT P6SM VCSH SCT015 BKN030
     FM030600 35018KT P6SM VCSH BKN040
     FM031000 35009KT P6SM SCT040 BKN050
     FM031500 27008KT P6SM SCT060 BKN100=

USA.gov is the U.S. government's official web portal to all federal, state and local government web resources and services.